sensor_id;sensor_type;location;lat;lon;timestamp;P1;durP1;ratioP1;P2;durP2;ratioP2
67602;SDS011;54417;47.454;18.918;2022-11-02T00:03:39;27.65;;;14.40;;
67602;SDS011;54417;47.454;18.918;2022-11-02T00:09:02;29.00;;;13.27;;
67602;SDS011;54417;47.454;18.918;2022-11-02T00:14:27;29.70;;;14.45;;
67602;SDS011;54417;47.454;18.918;2022-11-02T00:19:51;30.90;;;15.05;;
67602;SDS011;54417;47.454;18.918;2022-11-02T00:25:15;32.10;;;15.82;;
67602;SDS011;54417;47.454;18.918;2022-11-02T00:30:43;28.92;;;15.27;;
67602;SDS011;54417;47.454;18.918;2022-11-02T00:36:07;29.85;;;13.18;;
67602;SDS011;54417;47.454;18.918;2022-11-02T00:41:31;25.92;;;12.43;;
67602;SDS011;54417;47.454;18.918;2022-11-02T00:46:56;27.30;;;13.43;;
67602;SDS011;54417;47.454;18.918;2022-11-02T00:52:20;22.08;;;11.88;;
67602;SDS011;54417;47.454;18.918;2022-11-02T00:57:46;27.05;;;13.02;;
67602;SDS011;54417;47.454;18.918;2022-11-02T01:03:11;26.33;;;11.45;;
67602;SDS011;54417;47.454;18.918;2022-11-02T01:08:34;24.60;;;12.43;;
67602;SDS011;54417;47.454;18.918;2022-11-02T01:13:58;22.77;;;12.73;;
67602;SDS011;54417;47.454;18.918;2022-11-02T01:19:23;22.55;;;12.25;;
67602;SDS011;54417;47.454;18.918;2022-11-02T01:24:47;23.27;;;12.80;;
67602;SDS011;54417;47.454;18.918;2022-11-02T01:30:11;25.52;;;12.95;;
67602;SDS011;54417;47.454;18.918;2022-11-02T01:35:39;27.58;;;12.07;;
67602;SDS011;54417;47.454;18.918;2022-11-02T01:41:03;25.35;;;12.20;;
67602;SDS011;54417;47.454;18.918;2022-11-02T01:46:28;33.72;;;12.73;;
67602;SDS011;54417;47.454;18.918;2022-11-02T01:52:01;22.40;;;12.00;;
67602;SDS011;54417;47.454;18.918;2022-11-02T01:57:28;25.57;;;13.37;;
67602;SDS011;54417;47.454;18.918;2022-11-02T02:02:54;24.38;;;12.40;;
67602;SDS011;54417;47.454;18.918;2022-11-02T02:08:26;28.10;;;13.27;;
67602;SDS011;54417;47.454;18.918;2022-11-02T02:13:50;24.60;;;12.20;;
67602;SDS011;54417;47.454;18.918;2022-11-02T02:19:21;24.70;;;11.38;;
67602;SDS011;54417;47.454;18.918;2022-11-02T02:25:02;22.65;;;11.48;;
67602;SDS011;54417;47.454;18.918;2022-11-02T02:30:45;26.15;;;11.80;;
67602;SDS011;54417;47.454;18.918;2022-11-02T02:36:14;25.13;;;12.65;;
67602;SDS011;54417;47.454;18.918;2022-11-02T02:41:43;20.00;;;11.43;;
67602;SDS011;54417;47.454;18.918;2022-11-02T02:47:13;21.92;;;12.23;;
67602;SDS011;54417;47.454;18.918;2022-11-02T02:52:42;22.05;;;12.32;;
67602;SDS011;54417;47.454;18.918;2022-11-02T02:58:09;22.00;;;12.68;;
67602;SDS011;54417;47.454;18.918;2022-11-02T03:03:39;23.65;;;12.50;;
67602;SDS011;54417;47.454;18.918;2022-11-02T03:09:07;27.95;;;12.45;;
67602;SDS011;54417;47.454;18.918;2022-11-02T03:14:37;29.80;;;13.35;;
67602;SDS011;54417;47.454;18.918;2022-11-02T03:20:17;34.05;;;13.75;;
67602;SDS011;54417;47.454;18.918;2022-11-02T03:25:49;24.88;;;13.73;;
67602;SDS011;54417;47.454;18.918;2022-11-02T03:31:20;30.92;;;14.13;;
67602;SDS011;54417;47.454;18.918;2022-11-02T03:36:53;24.70;;;13.07;;
67602;SDS011;54417;47.454;18.918;2022-11-02T03:42:21;30.90;;;14.07;;
67602;SDS011;54417;47.454;18.918;2022-11-02T03:47:50;48.08;;;20.67;;
67602;SDS011;54417;47.454;18.918;2022-11-02T03:53:19;40.33;;;19.75;;
67602;SDS011;54417;47.454;18.918;2022-11-02T03:58:45;31.42;;;17.80;;
67602;SDS011;54417;47.454;18.918;2022-11-02T04:04:09;27.30;;;15.23;;
67602;SDS011;54417;47.454;18.918;2022-11-02T04:09:35;29.67;;;14.23;;
67602;SDS011;54417;47.454;18.918;2022-11-02T04:14:59;26.20;;;14.63;;
67602;SDS011;54417;47.454;18.918;2022-11-02T04:20:24;35.67;;;15.98;;
67602;SDS011;54417;47.454;18.918;2022-11-02T04:25:52;25.52;;;14.13;;
67602;SDS011;54417;47.454;18.918;2022-11-02T04:31:30;27.00;;;14.38;;
67602;SDS011;54417;47.454;18.918;2022-11-02T04:36:54;27.90;;;15.68;;
67602;SDS011;54417;47.454;18.918;2022-11-02T04:42:19;28.70;;;16.13;;
67602;SDS011;54417;47.454;18.918;2022-11-02T04:47:51;36.20;;;18.08;;
67602;SDS011;54417;47.454;18.918;2022-11-02T04:53:15;37.20;;;19.02;;
67602;SDS011;54417;47.454;18.918;2022-11-02T04:58:41;33.40;;;17.40;;
67602;SDS011;54417;47.454;18.918;2022-11-02T05:04:04;33.30;;;18.25;;
67602;SDS011;54417;47.454;18.918;2022-11-02T05:09:29;43.28;;;20.38;;
67602;SDS011;54417;47.454;18.918;2022-11-02T05:14:55;41.72;;;20.25;;
67602;SDS011;54417;47.454;18.918;2022-11-02T05:20:19;34.40;;;20.00;;
67602;SDS011;54417;47.454;18.918;2022-11-02T05:25:50;39.15;;;19.30;;
67602;SDS011;54417;47.454;18.918;2022-11-02T05:31:16;39.58;;;19.23;;
67602;SDS011;54417;47.454;18.918;2022-11-02T05:36:41;32.47;;;18.67;;
67602;SDS011;54417;47.454;18.918;2022-11-02T05:42:04;39.67;;;19.20;;
67602;SDS011;54417;47.454;18.918;2022-11-02T05:47:29;36.08;;;19.55;;
67602;SDS011;54417;47.454;18.918;2022-11-02T05:52:53;32.22;;;17.67;;
67602;SDS011;54417;47.454;18.918;2022-11-02T05:58:17;29.20;;;15.63;;
67602;SDS011;54417;47.454;18.918;2022-11-02T06:03:42;32.60;;;17.05;;
67602;SDS011;54417;47.454;18.918;2022-11-02T06:09:13;30.48;;;17.20;;
67602;SDS011;54417;47.454;18.918;2022-11-02T06:14:36;36.17;;;17.40;;
67602;SDS011;54417;47.454;18.918;2022-11-02T06:20:01;28.55;;;15.98;;
67602;SDS011;54417;47.454;18.918;2022-11-02T06:25:25;28.85;;;15.00;;
67602;SDS011;54417;47.454;18.918;2022-11-02T06:30:49;33.47;;;16.30;;
67602;SDS011;54417;47.454;18.918;2022-11-02T06:36:14;30.10;;;15.85;;
67602;SDS011;54417;47.454;18.918;2022-11-02T06:41:38;28.10;;;14.88;;
67602;SDS011;54417;47.454;18.918;2022-11-02T06:47:01;29.88;;;15.18;;
67602;SDS011;54417;47.454;18.918;2022-11-02T06:52:26;27.50;;;16.73;;
67602;SDS011;54417;47.454;18.918;2022-11-02T06:57:51;30.98;;;16.58;;
67602;SDS011;54417;47.454;18.918;2022-11-02T07:03:15;28.40;;;14.15;;
67602;SDS011;54417;47.454;18.918;2022-11-02T07:08:40;28.75;;;16.55;;
67602;SDS011;54417;47.454;18.918;2022-11-02T07:14:04;37.40;;;18.17;;
67602;SDS011;54417;47.454;18.918;2022-11-02T07:19:28;37.90;;;18.40;;
67602;SDS011;54417;47.454;18.918;2022-11-02T07:24:53;36.45;;;18.42;;
67602;SDS011;54417;47.454;18.918;2022-11-02T07:30:16;31.42;;;18.35;;
67602;SDS011;54417;47.454;18.918;2022-11-02T07:35:40;35.85;;;20.70;;
67602;SDS011;54417;47.454;18.918;2022-11-02T07:41:05;31.27;;;18.73;;
67602;SDS011;54417;47.454;18.918;2022-11-02T07:46:29;33.45;;;16.92;;
67602;SDS011;54417;47.454;18.918;2022-11-02T07:51:52;35.45;;;16.95;;
67602;SDS011;54417;47.454;18.918;2022-11-02T07:57:19;33.60;;;16.88;;
67602;SDS011;54417;47.454;18.918;2022-11-02T08:02:43;32.65;;;17.40;;
67602;SDS011;54417;47.454;18.918;2022-11-02T08:08:07;29.23;;;16.98;;
67602;SDS011;54417;47.454;18.918;2022-11-02T08:13:35;26.92;;;16.95;;
67602;SDS011;54417;47.454;18.918;2022-11-02T08:19:00;25.38;;;17.17;;
67602;SDS011;54417;47.454;18.918;2022-11-02T08:24:23;30.80;;;18.80;;
67602;SDS011;54417;47.454;18.918;2022-11-02T08:29:48;27.85;;;17.00;;
67602;SDS011;54417;47.454;18.918;2022-11-02T08:35:12;28.83;;;17.70;;
67602;SDS011;54417;47.454;18.918;2022-11-02T08:40:36;33.45;;;18.83;;
67602;SDS011;54417;47.454;18.918;2022-11-02T08:46:02;25.73;;;17.20;;
67602;SDS011;54417;47.454;18.918;2022-11-02T08:51:41;31.67;;;17.08;;
67602;SDS011;54417;47.454;18.918;2022-11-02T08:57:04;26.23;;;16.63;;
67602;SDS011;54417;47.454;18.918;2022-11-02T09:02:29;22.58;;;14.23;;
67602;SDS011;54417;47.454;18.918;2022-11-02T09:07:54;24.20;;;14.07;;
67602;SDS011;54417;47.454;18.918;2022-11-02T09:13:19;27.83;;;13.93;;
67602;SDS011;54417;47.454;18.918;2022-11-02T09:18:48;25.55;;;13.05;;
67602;SDS011;54417;47.454;18.918;2022-11-02T09:24:11;23.25;;;13.60;;
67602;SDS011;54417;47.454;18.918;2022-11-02T09:29:35;24.25;;;13.55;;
67602;SDS011;54417;47.454;18.918;2022-11-02T09:35:01;22.25;;;14.38;;
67602;SDS011;54417;47.454;18.918;2022-11-02T09:40:28;20.77;;;12.82;;
67602;SDS011;54417;47.454;18.918;2022-11-02T09:45:54;23.05;;;14.05;;
67602;SDS011;54417;47.454;18.918;2022-11-02T09:51:21;20.80;;;13.35;;
67602;SDS011;54417;47.454;18.918;2022-11-02T09:56:48;28.20;;;13.88;;
67602;SDS011;54417;47.454;18.918;2022-11-02T10:02:15;22.83;;;15.15;;
67602;SDS011;54417;47.454;18.918;2022-11-02T10:07:55;23.17;;;14.82;;
67602;SDS011;54417;47.454;18.918;2022-11-02T10:13:52;24.45;;;16.50;;
67602;SDS011;54417;47.454;18.918;2022-11-02T10:19:18;27.15;;;15.35;;
67602;SDS011;54417;47.454;18.918;2022-11-02T10:24:52;24.50;;;14.30;;
67602;SDS011;54417;47.454;18.918;2022-11-02T10:30:19;21.52;;;14.52;;
67602;SDS011;54417;47.454;18.918;2022-11-02T10:35:45;18.55;;;11.98;;
67602;SDS011;54417;47.454;18.918;2022-11-02T10:41:49;17.30;;;11.27;;
67602;SDS011;54417;47.454;18.918;2022-11-02T10:47:25;19.80;;;12.70;;
67602;SDS011;54417;47.454;18.918;2022-11-02T10:52:52;17.88;;;12.05;;
67602;SDS011;54417;47.454;18.918;2022-11-02T10:58:21;19.02;;;11.80;;
67602;SDS011;54417;47.454;18.918;2022-11-02T11:03:57;24.15;;;11.70;;
67602;SDS011;54417;47.454;18.918;2022-11-02T11:09:24;20.10;;;11.68;;
67602;SDS011;54417;47.454;18.918;2022-11-02T11:14:54;17.77;;;11.02;;
67602;SDS011;54417;47.454;18.918;2022-11-02T11:20:39;21.90;;;12.05;;
67602;SDS011;54417;47.454;18.918;2022-11-02T11:26:05;19.25;;;11.82;;
67602;SDS011;54417;47.454;18.918;2022-11-02T11:31:35;19.83;;;11.37;;
67602;SDS011;54417;47.454;18.918;2022-11-02T11:37:05;21.20;;;12.40;;
67602;SDS011;54417;47.454;18.918;2022-11-02T11:42:33;19.63;;;11.93;;
67602;SDS011;54417;47.454;18.918;2022-11-02T11:48:00;18.80;;;12.45;;
67602;SDS011;54417;47.454;18.918;2022-11-02T11:53:29;14.20;;;10.05;;
67602;SDS011;54417;47.454;18.918;2022-11-02T11:58:53;17.10;;;10.10;;
67602;SDS011;54417;47.454;18.918;2022-11-02T12:04:26;19.35;;;8.30;;
67602;SDS011;54417;47.454;18.918;2022-11-02T12:09:55;11.73;;;7.25;;
67602;SDS011;54417;47.454;18.918;2022-11-02T12:15:28;18.70;;;6.97;;
67602;SDS011;54417;47.454;18.918;2022-11-02T12:21:08;9.43;;;6.32;;
67602;SDS011;54417;47.454;18.918;2022-11-02T12:26:42;11.63;;;8.18;;
67602;SDS011;54417;47.454;18.918;2022-11-02T12:32:25;10.45;;;5.88;;
67602;SDS011;54417;47.454;18.918;2022-11-02T12:38:10;7.43;;;4.40;;
67602;SDS011;54417;47.454;18.918;2022-11-02T12:43:46;13.65;;;4.97;;
67602;SDS011;54417;47.454;18.918;2022-11-02T12:49:20;7.40;;;3.78;;
67602;SDS011;54417;47.454;18.918;2022-11-02T12:54:59;4.75;;;2.80;;
67602;SDS011;54417;47.454;18.918;2022-11-02T13:00:25;8.10;;;3.60;;
67602;SDS011;54417;47.454;18.918;2022-11-02T13:05:52;8.32;;;4.40;;
67602;SDS011;54417;47.454;18.918;2022-11-02T13:16:52;11.23;;;4.43;;
67602;SDS011;54417;47.454;18.918;2022-11-02T13:22:27;14.85;;;5.32;;
67602;SDS011;54417;47.454;18.918;2022-11-02T13:27:57;12.52;;;4.47;;
67602;SDS011;54417;47.454;18.918;2022-11-02T13:33:29;10.02;;;4.85;;
67602;SDS011;54417;47.454;18.918;2022-11-02T13:39:00;8.48;;;4.95;;
67602;SDS011;54417;47.454;18.918;2022-11-02T13:50:23;8.38;;;5.15;;
67602;SDS011;54417;47.454;18.918;2022-11-02T13:55:49;12.57;;;5.03;;
67602;SDS011;54417;47.454;18.918;2022-11-02T14:01:18;12.35;;;5.00;;
67602;SDS011;54417;47.454;18.918;2022-11-02T14:06:44;7.95;;;4.35;;
67602;SDS011;54417;47.454;18.918;2022-11-02T14:12:12;7.65;;;4.85;;
67602;SDS011;54417;47.454;18.918;2022-11-02T14:18:01;5.27;;;4.13;;
67602;SDS011;54417;47.454;18.918;2022-11-02T14:23:35;9.85;;;4.68;;
67602;SDS011;54417;47.454;18.918;2022-11-02T14:29:07;8.02;;;4.47;;
67602;SDS011;54417;47.454;18.918;2022-11-02T14:35:17;9.10;;;5.00;;
67602;SDS011;54417;47.454;18.918;2022-11-02T14:40:51;5.57;;;4.57;;
67602;SDS011;54417;47.454;18.918;2022-11-02T14:46:27;9.40;;;5.72;;
67602;SDS011;54417;47.454;18.918;2022-11-02T14:52:03;11.40;;;4.70;;
67602;SDS011;54417;47.454;18.918;2022-11-02T14:57:32;9.83;;;5.87;;
67602;SDS011;54417;47.454;18.918;2022-11-02T15:02:57;10.90;;;5.43;;
67602;SDS011;54417;47.454;18.918;2022-11-02T15:08:24;7.32;;;3.35;;
67602;SDS011;54417;47.454;18.918;2022-11-02T15:13:52;7.75;;;3.42;;
67602;SDS011;54417;47.454;18.918;2022-11-02T15:25:02;8.95;;;3.42;;
67602;SDS011;54417;47.454;18.918;2022-11-02T15:30:32;8.48;;;4.13;;
67602;SDS011;54417;47.454;18.918;2022-11-02T15:36:05;10.75;;;4.40;;
67602;SDS011;54417;47.454;18.918;2022-11-02T15:41:37;19.42;;;5.22;;
67602;SDS011;54417;47.454;18.918;2022-11-02T15:47:04;13.52;;;5.32;;
67602;SDS011;54417;47.454;18.918;2022-11-02T15:52:41;13.25;;;4.30;;
67602;SDS011;54417;47.454;18.918;2022-11-02T15:58:47;11.43;;;5.63;;
67602;SDS011;54417;47.454;18.918;2022-11-02T16:04:24;10.18;;;3.97;;
67602;SDS011;54417;47.454;18.918;2022-11-02T16:09:48;7.07;;;4.82;;
67602;SDS011;54417;47.454;18.918;2022-11-02T16:15:16;9.77;;;4.78;;
67602;SDS011;54417;47.454;18.918;2022-11-02T16:20:40;12.50;;;5.60;;
67602;SDS011;54417;47.454;18.918;2022-11-02T16:26:10;12.07;;;5.57;;
67602;SDS011;54417;47.454;18.918;2022-11-02T16:31:42;9.25;;;5.45;;
67602;SDS011;54417;47.454;18.918;2022-11-02T16:37:08;12.98;;;6.03;;
67602;SDS011;54417;47.454;18.918;2022-11-02T16:42:35;13.98;;;7.40;;
67602;SDS011;54417;47.454;18.918;2022-11-02T16:48:00;7.75;;;5.13;;
67602;SDS011;54417;47.454;18.918;2022-11-02T16:53:26;8.27;;;5.45;;
67602;SDS011;54417;47.454;18.918;2022-11-02T16:58:54;38.90;;;15.55;;
67602;SDS011;54417;47.454;18.918;2022-11-02T17:04:23;14.48;;;7.07;;
67602;SDS011;54417;47.454;18.918;2022-11-02T17:09:49;13.65;;;7.63;;
67602;SDS011;54417;47.454;18.918;2022-11-02T17:15:16;15.30;;;6.95;;
67602;SDS011;54417;47.454;18.918;2022-11-02T17:20:42;14.80;;;8.13;;
67602;SDS011;54417;47.454;18.918;2022-11-02T17:31:54;34.78;;;16.70;;
67602;SDS011;54417;47.454;18.918;2022-11-02T17:37:23;28.58;;;15.25;;
67602;SDS011;54417;47.454;18.918;2022-11-02T17:42:49;20.90;;;12.45;;
67602;SDS011;54417;47.454;18.918;2022-11-02T17:48:23;13.45;;;9.55;;
67602;SDS011;54417;47.454;18.918;2022-11-02T17:53:49;17.83;;;9.80;;
67602;SDS011;54417;47.454;18.918;2022-11-02T17:59:14;9.93;;;6.93;;
67602;SDS011;54417;47.454;18.918;2022-11-02T18:04:38;9.55;;;4.22;;
67602;SDS011;54417;47.454;18.918;2022-11-02T18:10:03;13.77;;;4.25;;
67602;SDS011;54417;47.454;18.918;2022-11-02T18:15:28;8.75;;;3.78;;
67602;SDS011;54417;47.454;18.918;2022-11-02T18:20:54;6.70;;;3.60;;
67602;SDS011;54417;47.454;18.918;2022-11-02T18:26:19;6.80;;;4.30;;
67602;SDS011;54417;47.454;18.918;2022-11-02T18:31:44;7.60;;;4.15;;
67602;SDS011;54417;47.454;18.918;2022-11-02T18:37:08;5.65;;;4.32;;
67602;SDS011;54417;47.454;18.918;2022-11-02T18:42:35;12.50;;;6.18;;
67602;SDS011;54417;47.454;18.918;2022-11-02T18:47:59;6.20;;;4.28;;
67602;SDS011;54417;47.454;18.918;2022-11-02T18:53:23;6.90;;;4.10;;
67602;SDS011;54417;47.454;18.918;2022-11-02T18:58:49;5.90;;;3.90;;
67602;SDS011;54417;47.454;18.918;2022-11-02T19:04:13;6.78;;;4.43;;
67602;SDS011;54417;47.454;18.918;2022-11-02T19:09:38;6.43;;;4.57;;
67602;SDS011;54417;47.454;18.918;2022-11-02T19:15:04;13.55;;;5.85;;
67602;SDS011;54417;47.454;18.918;2022-11-02T19:20:28;13.02;;;6.88;;
67602;SDS011;54417;47.454;18.918;2022-11-02T19:25:52;14.02;;;9.05;;
67602;SDS011;54417;47.454;18.918;2022-11-02T19:31:17;14.55;;;9.50;;
67602;SDS011;54417;47.454;18.918;2022-11-02T19:36:41;8.77;;;5.95;;
67602;SDS011;54417;47.454;18.918;2022-11-02T19:42:04;9.70;;;4.95;;
67602;SDS011;54417;47.454;18.918;2022-11-02T19:47:30;7.32;;;4.82;;
67602;SDS011;54417;47.454;18.918;2022-11-02T19:52:54;12.63;;;8.05;;
67602;SDS011;54417;47.454;18.918;2022-11-02T19:58:17;14.07;;;8.48;;
67602;SDS011;54417;47.454;18.918;2022-11-02T20:03:43;17.33;;;10.88;;
67602;SDS011;54417;47.454;18.918;2022-11-02T20:09:11;13.73;;;9.52;;
67602;SDS011;54417;47.454;18.918;2022-11-02T20:14:42;22.52;;;9.93;;
67602;SDS011;54417;47.454;18.918;2022-11-02T20:20:07;21.75;;;10.82;;
67602;SDS011;54417;47.454;18.918;2022-11-02T20:25:31;15.73;;;9.45;;
67602;SDS011;54417;47.454;18.918;2022-11-02T20:30:55;15.13;;;10.48;;
67602;SDS011;54417;47.454;18.918;2022-11-02T20:36:20;16.73;;;10.40;;
67602;SDS011;54417;47.454;18.918;2022-11-02T20:41:44;16.27;;;9.52;;
67602;SDS011;54417;47.454;18.918;2022-11-02T20:47:08;13.80;;;10.02;;
67602;SDS011;54417;47.454;18.918;2022-11-02T20:52:33;17.10;;;10.40;;
67602;SDS011;54417;47.454;18.918;2022-11-02T20:57:56;16.58;;;10.43;;
67602;SDS011;54417;47.454;18.918;2022-11-02T21:03:20;18.80;;;10.77;;
67602;SDS011;54417;47.454;18.918;2022-11-02T21:08:46;19.13;;;10.85;;
67602;SDS011;54417;47.454;18.918;2022-11-02T21:14:15;13.13;;;9.10;;
67602;SDS011;54417;47.454;18.918;2022-11-02T21:19:39;12.80;;;9.20;;
67602;SDS011;54417;47.454;18.918;2022-11-02T21:25:04;17.63;;;10.93;;
67602;SDS011;54417;47.454;18.918;2022-11-02T21:30:28;18.73;;;11.20;;
67602;SDS011;54417;47.454;18.918;2022-11-02T21:35:53;19.88;;;12.80;;
67602;SDS011;54417;47.454;18.918;2022-11-02T21:41:19;19.85;;;13.05;;
67602;SDS011;54417;47.454;18.918;2022-11-02T21:46:48;24.73;;;13.07;;
67602;SDS011;54417;47.454;18.918;2022-11-02T21:52:11;20.05;;;12.82;;
67602;SDS011;54417;47.454;18.918;2022-11-02T21:57:37;20.10;;;13.30;;
67602;SDS011;54417;47.454;18.918;2022-11-02T22:03:00;25.42;;;13.50;;
67602;SDS011;54417;47.454;18.918;2022-11-02T22:08:25;24.65;;;12.07;;
67602;SDS011;54417;47.454;18.918;2022-11-02T22:14:02;18.92;;;12.93;;
67602;SDS011;54417;47.454;18.918;2022-11-02T22:19:26;20.58;;;13.38;;
67602;SDS011;54417;47.454;18.918;2022-11-02T22:24:49;20.48;;;13.77;;
67602;SDS011;54417;47.454;18.918;2022-11-02T22:30:14;19.05;;;12.77;;
67602;SDS011;54417;47.454;18.918;2022-11-02T22:35:38;16.20;;;12.05;;
67602;SDS011;54417;47.454;18.918;2022-11-02T22:41:02;22.15;;;12.73;;
67602;SDS011;54417;47.454;18.918;2022-11-02T22:46:29;20.00;;;12.52;;
67602;SDS011;54417;47.454;18.918;2022-11-02T22:51:54;18.95;;;12.75;;
67602;SDS011;54417;47.454;18.918;2022-11-02T22:57:18;21.30;;;12.68;;
67602;SDS011;54417;47.454;18.918;2022-11-02T23:02:43;18.17;;;13.70;;
67602;SDS011;54417;47.454;18.918;2022-11-02T23:08:06;18.80;;;12.13;;
67602;SDS011;54417;47.454;18.918;2022-11-02T23:13:30;23.40;;;13.82;;
67602;SDS011;54417;47.454;18.918;2022-11-02T23:18:56;24.65;;;14.82;;
67602;SDS011;54417;47.454;18.918;2022-11-02T23:24:45;21.20;;;14.33;;
67602;SDS011;54417;47.454;18.918;2022-11-02T23:30:28;20.52;;;14.15;;
67602;SDS011;54417;47.454;18.918;2022-11-02T23:36:13;27.33;;;15.80;;
67602;SDS011;54417;47.454;18.918;2022-11-02T23:41:37;25.98;;;15.20;;
67602;SDS011;54417;47.454;18.918;2022-11-02T23:47:00;24.75;;;14.88;;
67602;SDS011;54417;47.454;18.918;2022-11-02T23:52:26;25.83;;;15.93;;
67602;SDS011;54417;47.454;18.918;2022-11-02T23:58:06;23.92;;;15.20;;
